Aqua Bob — WD19623 — position and weather

sailwx.info

Track history (hours):
 
Tides and Currents Weather Stations Pressure Air Temp Water Temp Dewpoint Dewpoint Depression Visibility Wind Speed Wind Dir Waves Ship Positions

Aqua Bob

Last reported at 2018-Aug-12 22:01 UTC. Time now 2018-Aug-14 13:45 UTC.
Position N 32°50' W 079°56'.

Length 16 m.

Type: Sailing vessel. MMSI: 367750540.

Date/timePositionNaut miles runAvg speedWind from/ knotsBaromVisibWave heightAir tempDewpointWater temp
2018-Aug-12 22:01N 32°50' W 079°56'2 6.5
2018-Aug-12 21:47N 32°48' W 079°55'2 7.0
2018-Aug-12 21:30N 32°46' W 079°55'0 0.1
2018-Aug-12 20:59N 32°46' W 079°55'0 0.0
2018-Aug-12 20:29N 32°46' W 079°55'0 0.0
2018-Aug-12 19:53N 32°46' W 079°55'0 0.1
2018-Aug-12 19:29N 32°46' W 079°55'0 0.0
2018-Aug-12 18:59N 32°46' W 079°55'0 0.0
2018-Aug-12 18:29N 32°46' W 079°55'0 0.0
2018-Aug-12 17:59N 32°46' W 079°55'0 0.0
2018-Aug-12 17:29N 32°46' W 079°55'0 0.0
2018-Aug-12 16:59N 32°46' W 079°55'0 0.0
2018-Aug-12 16:28N 32°46' W 079°55'4 5.8
2018-Aug-12 15:49N 32°50' W 079°56'  
2018-Aug-04 21:12N 32°50' W 079°56'0 0.0
2018-Aug-04 21:00N 32°50' W 079°56'1 0.5
2018-Aug-04 18:52N 32°49' W 079°55'0 0.0
2018-Aug-04 18:28N 32°49' W 079°55'  
Track history (hours):
 
Tides and Currents Weather Stations Pressure Air Temp Water Temp Dewpoint Dewpoint Depression Visibility Wind Speed Wind Dir Waves Ship Positions

Aqua Bob

Last reported at 2018-Aug-12 22:01 UTC. Time now 2018-Aug-14 13:45 UTC.
Position N 32°50' W 079°56'.

Length 16 m.

Type: Sailing vessel. MMSI: 367750540.

Date/timePositionNaut miles runAvg speedWind from/ knotsBaromVisibWave heightAir tempDewpointWater temp
2018-Aug-12 22:01N 32°50' W 079°56'2 6.5
2018-Aug-12 21:47N 32°48' W 079°55'2 7.0
2018-Aug-12 21:30N 32°46' W 079°55'0 0.1
2018-Aug-12 20:59N 32°46' W 079°55'0 0.0
2018-Aug-12 20:29N 32°46' W 079°55'0 0.0
2018-Aug-12 19:53N 32°46' W 079°55'0 0.1
2018-Aug-12 19:29N 32°46' W 079°55'0 0.0
2018-Aug-12 18:59N 32°46' W 079°55'0 0.0
2018-Aug-12 18:29N 32°46' W 079°55'0 0.0
2018-Aug-12 17:59N 32°46' W 079°55'0 0.0
2018-Aug-12 17:29N 32°46' W 079°55'0 0.0
2018-Aug-12 16:59N 32°46' W 079°55'0 0.0
2018-Aug-12 16:28N 32°46' W 079°55'4 5.8
2018-Aug-12 15:49N 32°50' W 079°56'  
2018-Aug-04 21:12N 32°50' W 079°56'0 0.0
2018-Aug-04 21:00N 32°50' W 079°56'1 0.5
2018-Aug-04 18:52N 32°49' W 079°55'0 0.0
2018-Aug-04 18:28N 32°49' W 079°55'  

Dump ship's entire track history